createdAt,value
2022-08-26T00:00:25.407Z,94.76
2022-08-26T00:01:29.893Z,95.16
2022-08-26T00:02:25.450Z,95.26
2022-08-26T00:03:25.407Z,95.26
2022-08-26T00:04:25.876Z,94.86
2022-08-26T00:05:25.404Z,94.76
2022-08-26T00:06:25.402Z,95.36
2022-08-26T00:07:25.396Z,95.26
2022-08-26T00:08:25.395Z,96.06
2022-08-26T00:09:25.401Z,95.47
2022-08-26T00:10:25.885Z,96.01
2022-08-26T00:11:26.993Z,96.26
2022-08-26T00:12:31.517Z,96.17
2022-08-26T00:13:25.396Z,96.31
2022-08-26T00:14:30.785Z,96.31
2022-08-26T00:15:25.388Z,96.51
2022-08-26T00:16:25.433Z,96.21
2022-08-26T00:17:25.388Z,96.41
2022-08-26T00:18:25.384Z,96.71
2022-08-26T00:19:25.387Z,97.02
2022-08-26T00:20:25.381Z,97.41
2022-08-26T00:21:25.381Z,97.31
2022-08-26T00:22:25.381Z,97.92
2022-08-26T00:23:25.386Z,97.11
2022-08-26T00:24:25.422Z,97.41
2022-08-26T00:25:25.422Z,97.41
2022-08-26T00:26:28.476Z,97.11
2022-08-26T00:27:25.390Z,96.81
2022-08-26T00:28:25.372Z,96.81
2022-08-26T00:29:25.383Z,96.51
2022-08-26T00:30:26.514Z,96.41
2022-08-26T00:31:25.423Z,96.51
2022-08-26T00:32:25.368Z,96.31
2022-08-26T00:33:25.368Z,96.91
2022-08-26T00:34:25.367Z,96.71
2022-08-26T00:35:25.365Z,96.91
2022-08-26T00:36:25.367Z,96.61
2022-08-26T00:37:25.361Z,97.02
2022-08-26T00:38:25.362Z,97.81
2022-08-26T00:39:25.363Z,97.61
2022-08-26T00:40:25.481Z,97.81
2022-08-26T00:41:25.358Z,97.81
2022-08-26T00:42:25.353Z,98.02
2022-08-26T00:43:25.356Z,97.72
2022-08-26T00:44:25.352Z,97.81
2022-08-26T00:45:25.390Z,97.92
2022-08-26T00:46:25.347Z,97.92
2022-08-26T00:47:25.347Z,97.92
2022-08-26T00:48:25.351Z,97.72
2022-08-26T00:49:25.346Z,97.92
2022-08-26T00:50:25.345Z,97.92
2022-08-26T00:51:29.794Z,97.52
2022-08-26T00:52:25.342Z,98.11
2022-08-26T00:53:26.057Z,98.11
2022-08-26T00:54:26.907Z,97.52
2022-08-26T00:55:25.338Z,97.92
2022-08-26T00:56:25.334Z,97.81
2022-08-26T00:57:25.338Z,97.92
2022-08-26T00:58:25.334Z,97.92
2022-08-26T00:59:25.332Z,97.92
2022-08-26T01:00:25.332Z,98.11
2022-08-26T01:01:25.357Z,98.02
2022-08-26T01:02:25.375Z,98.11
2022-08-26T01:03:25.329Z,98.02
2022-08-26T01:04:26.149Z,98.11
2022-08-26T01:05:25.324Z,98.22
2022-08-26T01:06:25.326Z,98.62
2022-08-26T01:07:25.327Z,98.77
2022-08-26T01:08:25.319Z,98.32
2022-08-26T01:09:25.320Z,98.07
2022-08-26T01:10:25.320Z,98.46
2022-08-26T01:11:25.318Z,99.07
2022-08-26T01:12:25.315Z,99.02
2022-08-26T01:13:25.316Z,99.27
2022-08-26T01:14:25.313Z,99.37
2022-08-26T01:15:25.313Z,98.86
2022-08-26T01:16:25.375Z,99.57
2022-08-26T01:17:25.309Z,99.27
2022-08-26T01:18:25.329Z,99.16
2022-08-26T01:19:25.305Z,98.66
2022-08-26T01:20:25.305Z,98.86
2022-08-26T01:21:25.316Z,98.77
2022-08-26T01:22:28.259Z,98.77
2022-08-26T01:23:25.299Z,98.36
2022-08-26T01:24:25.299Z,98.46
2022-08-26T01:25:25.298Z,98.46
2022-08-26T01:26:25.295Z,99.16
2022-08-26T01:27:25.298Z,99.57
2022-08-26T01:28:25.293Z,98.97
2022-08-26T01:29:25.291Z,99.37
2022-08-26T01:30:25.295Z,99.71
2022-08-26T01:31:25.350Z,99.07
2022-08-26T01:32:25.284Z,99.47
2022-08-26T01:33:25.288Z,99.97
2022-08-26T01:34:25.307Z,99.37
2022-08-26T01:35:25.281Z,99.47
2022-08-26T01:36:25.281Z,99.27
2022-08-26T01:37:25.306Z,99.47
2022-08-26T01:38:25.299Z,98.97
2022-08-26T01:39:25.324Z,99.57
2022-08-26T01:40:25.315Z,99.77
2022-08-26T01:41:27.513Z,99.87
2022-08-26T01:42:25.279Z,99.87
2022-08-26T01:43:25.272Z,99.97
2022-08-26T01:44:25.268Z,99.67
2022-08-26T01:45:25.339Z,99.37
2022-08-26T01:46:25.266Z,99.57
2022-08-26T01:47:25.263Z,98.97
2022-08-26T01:48:25.267Z,99.37
2022-08-26T01:49:26.017Z,99.27
2022-08-26T01:50:28.149Z,99.27
2022-08-26T01:51:25.258Z,99.37
2022-08-26T01:52:28.134Z,99.47
2022-08-26T01:53:25.257Z,99.07
2022-08-26T01:54:25.256Z,99.57
2022-08-26T01:55:32.318Z,99.07
2022-08-26T01:56:25.251Z,99.37
2022-08-26T01:57:25.252Z,99.67
2022-08-26T01:58:25.249Z,99.47
2022-08-26T01:59:25.247Z,99.99
2022-08-26T02:00:25.246Z,99.27
2022-08-26T02:01:29.156Z,99.57
2022-08-26T02:02:25.243Z,99.87
2022-08-26T02:03:25.273Z,99.99
2022-08-26T02:04:25.271Z,99.99
2022-08-26T02:05:25.238Z,99.87
2022-08-26T02:06:25.257Z,99.99
2022-08-26T02:07:26.747Z,99.99
2022-08-26T02:08:25.357Z,99.99
2022-08-26T02:09:25.233Z,99.99
2022-08-26T02:10:25.234Z,99.99
2022-08-26T02:11:25.229Z,99.99
2022-08-26T02:12:25.229Z,99.99
2022-08-26T02:13:25.231Z,99.99
2022-08-26T02:14:26.795Z,99.99
2022-08-26T02:15:25.224Z,99.99
2022-08-26T02:16:25.303Z,99.99
2022-08-26T02:17:25.226Z,99.99
2022-08-26T02:18:25.220Z,99.99
2022-08-26T02:19:25.218Z,99.99
2022-08-26T02:20:26.476Z,99.99
2022-08-26T02:21:25.215Z,99.99
2022-08-26T02:22:25.213Z,99.99
2022-08-26T02:23:25.212Z,99.99
2022-08-26T02:24:27.584Z,99.91
2022-08-26T02:25:25.209Z,99.99
2022-08-26T02:26:25.209Z,99.99
2022-08-26T02:27:25.208Z,99.99
2022-08-26T02:28:26.602Z,99.99
2022-08-26T02:29:25.215Z,99.99
2022-08-26T02:30:25.201Z,99.99
2022-08-26T02:31:25.218Z,99.99
2022-08-26T02:32:25.201Z,99.99
2022-08-26T02:33:25.196Z,99.99
2022-08-26T02:34:25.192Z,99.99
2022-08-26T02:35:25.191Z,99.99
2022-08-26T02:36:25.192Z,99.99
2022-08-26T02:37:25.191Z,99.99
2022-08-26T02:38:25.189Z,99.99
2022-08-26T02:39:25.188Z,99.99
2022-08-26T02:40:25.230Z,99.99
2022-08-26T02:41:25.186Z,99.99
2022-08-26T02:42:25.183Z,99.99
2022-08-26T02:43:31.493Z,99.99
2022-08-26T02:44:25.451Z,99.99
2022-08-26T02:45:25.176Z,99.99
2022-08-26T02:46:29.789Z,99.99
2022-08-26T02:47:25.172Z,99.99
2022-08-26T02:48:25.177Z,99.99
2022-08-26T02:49:25.174Z,99.99
2022-08-26T02:50:25.212Z,99.99
2022-08-26T02:51:25.167Z,99.99
2022-08-26T02:52:25.166Z,99.99
2022-08-26T02:53:25.643Z,99.99
2022-08-26T02:54:25.162Z,99.99
2022-08-26T02:55:25.161Z,99.99
2022-08-26T02:56:25.160Z,99.99
2022-08-26T02:57:25.155Z,99.99
2022-08-26T02:58:25.158Z,99.99
2022-08-26T02:59:25.153Z,99.99
2022-08-26T03:00:25.184Z,99.99
2022-08-26T03:01:25.210Z,99.99
2022-08-26T03:02:25.185Z,99.99
2022-08-26T03:03:25.145Z,99.99
2022-08-26T03:04:25.820Z,99.99
2022-08-26T03:05:25.144Z,99.91
2022-08-26T03:06:25.139Z,99.99
2022-08-26T03:07:25.138Z,99.99
2022-08-26T03:08:25.137Z,99.99
2022-08-26T03:09:25.136Z,99.99
2022-08-26T03:10:26.015Z,99.99
2022-08-26T03:11:27.523Z,99.82
2022-08-26T03:12:25.722Z,99.99
2022-08-26T03:13:25.131Z,99.99
2022-08-26T03:14:25.126Z,99.99
2022-08-26T03:15:25.128Z,99.99
2022-08-26T03:16:25.177Z,99.99
2022-08-26T03:17:25.123Z,99.99
2022-08-26T03:18:25.119Z,99.99
2022-08-26T03:19:25.145Z,99.99
2022-08-26T03:20:25.116Z,99.99
2022-08-26T03:21:25.118Z,99.99
2022-08-26T03:22:25.115Z,99.99
2022-08-26T03:23:25.110Z,99.99
2022-08-26T03:24:25.112Z,99.99
2022-08-26T03:25:25.110Z,99.99
2022-08-26T03:26:25.106Z,99.99
2022-08-26T03:27:25.106Z,99.99
2022-08-26T03:28:27.178Z,99.99
2022-08-26T03:29:25.100Z,99.99
2022-08-26T03:30:25.106Z,99.99
2022-08-26T03:31:25.131Z,99.99
2022-08-26T03:32:27.133Z,99.99
2022-08-26T03:33:25.097Z,99.99
2022-08-26T03:34:25.091Z,99.99
2022-08-26T03:35:25.095Z,99.99
2022-08-26T03:36:25.088Z,99.99
2022-08-26T03:37:25.090Z,99.99
2022-08-26T03:38:25.087Z,99.99
2022-08-26T03:39:25.082Z,99.99
2022-08-26T03:40:25.193Z,99.99
2022-08-26T03:41:25.081Z,99.99
2022-08-26T03:42:25.078Z,99.99
2022-08-26T03:43:25.074Z,99.99
2022-08-26T03:44:25.077Z,99.99
2022-08-26T03:45:25.073Z,99.99
2022-08-26T03:46:25.096Z,99.99
2022-08-26T03:47:25.068Z,99.99
2022-08-26T03:48:25.067Z,99.99
2022-08-26T03:49:25.068Z,99.99
2022-08-26T03:50:25.065Z,99.99
2022-08-26T03:51:25.061Z,99.99
2022-08-26T03:52:25.061Z,99.99
2022-08-26T03:53:25.061Z,99.99
2022-08-26T03:54:25.054Z,99.99
2022-08-26T03:55:25.057Z,99.99
2022-08-26T03:56:25.053Z,99.99
2022-08-26T03:57:25.050Z,99.99
2022-08-26T03:58:25.052Z,99.99
2022-08-26T03:59:25.051Z,99.99
2022-08-26T04:00:25.040Z,99.99
2022-08-26T04:01:25.113Z,99.99
2022-08-26T04:02:25.080Z,99.99
2022-08-26T04:03:25.108Z,99.99
2022-08-26T04:04:25.036Z,99.99
2022-08-26T04:05:25.043Z,99.99
2022-08-26T04:06:25.039Z,99.99
2022-08-26T04:07:25.035Z,99.99
2022-08-26T04:08:25.031Z,99.99
2022-08-26T04:09:25.076Z,99.99
2022-08-26T04:10:29.316Z,99.99
2022-08-26T04:11:25.029Z,99.99
2022-08-26T04:12:25.024Z,99.99
2022-08-26T04:13:25.024Z,99.99
2022-08-26T04:14:25.020Z,99.99
2022-08-26T04:15:25.017Z,99.99
2022-08-26T04:16:25.091Z,99.99
2022-08-26T04:17:25.137Z,99.99
2022-08-26T04:18:25.011Z,99.99
2022-08-26T04:19:25.007Z,99.99
2022-08-26T04:20:25.013Z,99.99
2022-08-26T04:21:25.008Z,99.99
2022-08-26T04:22:25.181Z,99.99
2022-08-26T04:23:25.004Z,99.99
2022-08-26T04:24:25.014Z,99.99
2022-08-26T04:25:24.999Z,99.99
2022-08-26T04:26:25.001Z,99.99
2022-08-26T04:27:24.999Z,99.99
2022-08-26T04:28:24.991Z,99.99
2022-08-26T04:29:24.994Z,99.99
2022-08-26T04:30:24.989Z,99.99
2022-08-26T04:31:25.015Z,99.99
2022-08-26T04:32:24.985Z,99.99
2022-08-26T04:33:32.437Z,99.99
2022-08-26T04:34:24.982Z,99.99
2022-08-26T04:35:26.129Z,99.99
2022-08-26T04:36:24.977Z,99.99
2022-08-26T04:37:24.977Z,99.99
2022-08-26T04:38:24.974Z,99.99
2022-08-26T04:39:25.329Z,99.99
2022-08-26T04:40:25.120Z,99.99
2022-08-26T04:41:24.972Z,99.99
2022-08-26T04:42:26.080Z,99.99
2022-08-26T04:43:24.965Z,99.99
2022-08-26T04:44:24.968Z,99.99
2022-08-26T04:45:24.965Z,99.99
2022-08-26T04:46:24.998Z,99.99
2022-08-26T04:47:28.067Z,99.99
2022-08-26T04:48:24.958Z,99.99
2022-08-26T04:49:26.009Z,99.99
2022-08-26T04:50:24.952Z,99.99
2022-08-26T04:51:24.953Z,99.99
2022-08-26T04:52:24.951Z,99.99
2022-08-26T04:53:24.950Z,99.97
2022-08-26T04:54:25.084Z,99.87
2022-08-26T04:55:25.193Z,99.99
2022-08-26T04:56:24.943Z,99.99
2022-08-26T04:57:24.947Z,99.99
2022-08-26T04:58:24.942Z,99.67
2022-08-26T04:59:24.938Z,99.37
2022-08-26T05:00:24.937Z,99.97
2022-08-26T05:01:24.999Z,99.57
2022-08-26T05:02:24.933Z,99.57
2022-08-26T05:03:24.935Z,99.67
2022-08-26T05:04:24.984Z,99.97
2022-08-26T05:05:24.931Z,98.86
2022-08-26T05:06:24.929Z,98.86
2022-08-26T05:07:24.929Z,98.52
2022-08-26T05:08:24.926Z,98.86
2022-08-26T05:09:24.927Z,98.57
2022-08-26T05:10:24.929Z,98.52
2022-08-26T05:11:24.920Z,99.02
2022-08-26T05:12:24.925Z,98.47
2022-08-26T05:13:24.923Z,98.47
2022-08-26T05:14:24.917Z,97.72
2022-08-26T05:15:24.917Z,97.52
2022-08-26T05:16:24.953Z,96.72
2022-08-26T05:17:24.914Z,96.88
2022-08-26T05:18:24.909Z,96.58
2022-08-26T05:19:24.908Z,95.93
2022-08-26T05:20:26.201Z,95.93
2022-08-26T05:21:24.909Z,94.18
2022-08-26T05:22:24.908Z,94.08
2022-08-26T05:23:24.905Z,94.04
2022-08-26T05:24:24.901Z,92.19
2022-08-26T05:25:24.903Z,91.59
2022-08-26T05:26:24.898Z,90.75
2022-08-26T05:27:24.900Z,91.05
2022-08-26T05:28:24.899Z,91.25
2022-08-26T05:29:24.902Z,91.05
2022-08-26T05:30:24.894Z,89.75
2022-08-26T05:31:24.926Z,89.65
2022-08-26T05:32:24.893Z,89.90
2022-08-26T05:33:24.895Z,89.20
2022-08-26T05:34:25.757Z,89.25
2022-08-26T05:35:24.890Z,90.19
2022-08-26T05:36:26.840Z,91.29
2022-08-26T05:37:24.889Z,90.79
2022-08-26T05:38:24.887Z,91.19
2022-08-26T05:39:24.889Z,91.39
2022-08-26T05:40:24.996Z,90.95
2022-08-26T05:41:24.884Z,90.15
2022-08-26T05:42:24.883Z,89.81
2022-08-26T05:43:24.884Z,88.60
2022-08-26T05:44:24.883Z,87.91
2022-08-26T05:45:24.881Z,88.46
2022-08-26T05:46:24.926Z,87.42
2022-08-26T05:47:24.880Z,86.82
2022-08-26T05:48:24.889Z,86.97
2022-08-26T05:49:26.415Z,86.66
2022-08-26T05:50:24.878Z,87.62
2022-08-26T05:51:26.129Z,86.68
2022-08-26T05:52:25.950Z,86.29
2022-08-26T05:53:26.081Z,84.65
2022-08-26T05:54:24.889Z,84.31
2022-08-26T05:55:24.873Z,83.95
2022-08-26T05:56:24.923Z,84.55
2022-08-26T05:57:24.877Z,84.89
2022-08-26T05:58:24.875Z,84.35
2022-08-26T05:59:24.932Z,83.91
2022-08-26T06:00:24.875Z,84.35
2022-08-26T06:01:24.917Z,84.35
2022-08-26T06:02:24.914Z,84.89
2022-08-26T06:03:24.875Z,84.09
2022-08-26T06:04:28.707Z,84.59
2022-08-26T06:05:24.873Z,85.58
2022-08-26T06:06:27.333Z,84.05
2022-08-26T06:07:24.877Z,84.81
2022-08-26T06:08:24.875Z,84.55
2022-08-26T06:09:24.880Z,84.01
2022-08-26T06:10:33.048Z,83.31
2022-08-26T06:11:24.877Z,82.87
2022-08-26T06:12:24.875Z,82.24
2022-08-26T06:13:24.874Z,80.80
2022-08-26T06:14:24.875Z,80.51
2022-08-26T06:15:24.874Z,80.66
2022-08-26T06:16:24.949Z,80.17
2022-08-26T06:17:24.886Z,79.73
2022-08-26T06:18:24.875Z,78.04
2022-08-26T06:19:24.885Z,77.94
2022-08-26T06:20:24.877Z,78.11
2022-08-26T06:21:24.878Z,77.77
2022-08-26T06:22:24.878Z,77.47
2022-08-26T06:23:24.878Z,77.70
2022-08-26T06:24:27.173Z,77.55
2022-08-26T06:25:24.881Z,77.41
2022-08-26T06:26:24.879Z,77.41
2022-08-26T06:27:27.281Z,77.77
2022-08-26T06:28:24.884Z,77.67
2022-08-26T06:29:24.939Z,76.21
2022-08-26T06:30:24.906Z,75.61
2022-08-26T06:31:24.921Z,74.58
2022-08-26T06:32:24.890Z,74.82
2022-08-26T06:33:24.892Z,74.82
2022-08-26T06:34:29.642Z,75.21
2022-08-26T06:35:24.890Z,75.21
2022-08-26T06:36:24.894Z,74.62
2022-08-26T06:37:24.895Z,74.82
2022-08-26T06:38:24.895Z,75.12
2022-08-26T06:39:24.901Z,74.68
2022-08-26T06:40:24.995Z,73.46
2022-08-26T06:41:24.903Z,72.96
2022-08-26T06:42:24.907Z,72.53
2022-08-26T06:43:24.903Z,72.33
2022-08-26T06:44:24.907Z,72.43
2022-08-26T06:45:24.909Z,72.86
2022-08-26T06:46:24.956Z,73.36
2022-08-26T06:47:24.919Z,72.69
2022-08-26T06:48:24.919Z,71.47
2022-08-26T06:49:26.720Z,70.68
2022-08-26T06:50:24.941Z,71.08
2022-08-26T06:51:24.922Z,71.63
2022-08-26T06:52:24.923Z,69.82
2022-08-26T06:53:24.927Z,69.29
2022-08-26T06:54:24.924Z,69.02
2022-08-26T06:55:27.071Z,69.59
2022-08-26T06:56:24.935Z,69.09
2022-08-26T06:57:24.937Z,68.17
2022-08-26T06:58:24.940Z,67.18
2022-08-26T06:59:24.949Z,66.88
2022-08-26T07:00:24.945Z,67.18
2022-08-26T07:01:24.990Z,67.15
2022-08-26T07:02:24.966Z,66.66
2022-08-26T07:03:24.956Z,66.52
2022-08-26T07:04:24.962Z,66.75
2022-08-26T07:05:24.961Z,65.31
2022-08-26T07:06:24.964Z,63.60
2022-08-26T07:07:24.968Z,62.79
2022-08-26T07:08:24.970Z,62.53
2022-08-26T07:09:24.975Z,59.68
2022-08-26T07:10:24.977Z,61.05
2022-08-26T07:11:24.984Z,62.65
2022-08-26T07:12:24.985Z,63.11
2022-08-26T07:13:29.972Z,65.01
2022-08-26T07:14:24.995Z,64.75
2022-08-26T07:15:27.280Z,65.24
2022-08-26T07:16:24.999Z,65.34
2022-08-26T07:17:25.176Z,66.46
2022-08-26T07:18:25.006Z,67.05
2022-08-26T07:19:30.623Z,66.56
2022-08-26T07:20:25.030Z,66.95
2022-08-26T07:21:25.018Z,65.31
2022-08-26T07:22:25.032Z,64.98
2022-08-26T07:23:25.026Z,65.34
2022-08-26T07:24:25.047Z,66.92
2022-08-26T07:25:25.037Z,65.34
2022-08-26T07:26:25.040Z,65.01
2022-08-26T07:27:25.043Z,65.24
2022-08-26T07:28:25.063Z,65.93
2022-08-26T07:29:25.057Z,65.11
2022-08-26T07:30:25.055Z,63.50
2022-08-26T07:31:25.097Z,63.77
2022-08-26T07:32:25.065Z,62.98
2022-08-26T07:33:25.076Z,62.92
2022-08-26T07:34:25.076Z,62.69
2022-08-26T07:35:25.079Z,60.86
2022-08-26T07:36:25.084Z,60.05
2022-08-26T07:37:25.084Z,60.63
2022-08-26T07:38:25.092Z,60.63
2022-08-26T07:39:25.101Z,59.78
2022-08-26T07:40:25.194Z,60.82
2022-08-26T07:41:25.167Z,62.59
2022-08-26T07:42:25.108Z,62.62
2022-08-26T07:43:25.114Z,62.78
2022-08-26T07:44:25.122Z,64.98
2022-08-26T07:45:25.122Z,65.14
2022-08-26T07:46:26.973Z,67.84
2022-08-26T07:47:26.238Z,70.45
2022-08-26T07:48:25.135Z,70.94
2022-08-26T07:49:25.244Z,71.27
2022-08-26T07:50:48.976Z,71.57
2022-08-26T07:51:25.149Z,71.41
2022-08-26T07:52:27.049Z,72.16
2022-08-26T07:53:25.160Z,72.13
2022-08-26T07:54:26.667Z,71.53
2022-08-26T07:55:25.161Z,71.04
2022-08-26T07:56:25.164Z,71.34
2022-08-26T07:57:25.170Z,70.15
2022-08-26T07:58:25.176Z,71.23
2022-08-26T07:59:25.173Z,70.64
2022-08-26T08:00:25.177Z,71.37
2022-08-26T08:01:25.253Z,71.67
2022-08-26T08:02:25.182Z,72.20
2022-08-26T08:03:25.187Z,72.60
2022-08-26T08:04:26.713Z,72.63
2022-08-26T08:05:33.299Z,72.30
2022-08-26T08:06:27.235Z,72.49
2022-08-26T08:07:38.733Z,72.39
2022-08-26T08:08:27.555Z,71.86
2022-08-26T08:09:25.214Z,71.27
2022-08-26T08:10:25.285Z,71.67
2022-08-26T08:11:25.212Z,71.27
2022-08-26T08:12:25.217Z,71.27
2022-08-26T08:13:25.231Z,71.63
2022-08-26T08:14:25.219Z,71.23
2022-08-26T08:15:25.226Z,70.34
2022-08-26T08:16:25.285Z,69.42
2022-08-26T08:17:25.231Z,70.01
2022-08-26T08:18:25.226Z,69.78
2022-08-26T08:19:33.095Z,68.70
2022-08-26T08:20:25.232Z,68.79
2022-08-26T08:21:25.236Z,66.72
2022-08-26T08:22:25.239Z,68.33
2022-08-26T08:23:25.241Z,69.46
2022-08-26T08:24:25.246Z,69.75
2022-08-26T08:25:25.247Z,69.85
2022-08-26T08:26:25.250Z,69.26
2022-08-26T08:27:25.255Z,70.34
2022-08-26T08:28:25.255Z,70.90
2022-08-26T08:29:25.257Z,70.45
2022-08-26T08:30:25.258Z,69.49
2022-08-26T08:31:54.404Z,69.49
2022-08-26T08:32:25.264Z,68.27
2022-08-26T08:33:25.269Z,67.94
2022-08-26T08:34:25.866Z,68.13
2022-08-26T08:35:25.272Z,67.84
2022-08-26T08:36:25.275Z,67.02
2022-08-26T08:37:25.277Z,67.81
2022-08-26T08:38:25.283Z,65.47
2022-08-26T08:39:25.298Z,67.05
2022-08-26T08:40:25.321Z,67.87
2022-08-26T08:41:25.290Z,67.94
2022-08-26T08:42:25.290Z,66.75
2022-08-26T08:43:25.294Z,67.25
2022-08-26T08:45:25.302Z,66.66
2022-08-26T08:46:25.357Z,66.26
2022-08-26T08:47:25.307Z,66.88
2022-08-26T08:48:27.794Z,67.48
2022-08-26T08:49:25.311Z,66.75
2022-08-26T08:50:25.312Z,66.56
2022-08-26T08:51:25.318Z,66.56
2022-08-26T08:52:25.319Z,66.75
2022-08-26T08:53:25.322Z,66.66
2022-08-26T08:54:25.326Z,66.75
2022-08-26T08:55:25.327Z,66.95
2022-08-26T08:56:25.333Z,66.75
2022-08-26T08:57:25.333Z,66.66
2022-08-26T08:58:25.333Z,64.88
2022-08-26T08:59:25.337Z,65.37
2022-08-26T09:00:30.134Z,65.50
2022-08-26T09:01:25.392Z,66.22
2022-08-26T09:02:25.380Z,66.92
2022-08-26T09:03:25.350Z,66.42
2022-08-26T09:04:25.353Z,66.78
2022-08-26T09:05:25.358Z,67.18
2022-08-26T09:06:25.384Z,66.16
2022-08-26T09:07:25.366Z,65.86
2022-08-26T09:08:25.366Z,64.65
2022-08-26T09:09:25.368Z,65.34
2022-08-26T09:10:25.371Z,63.34
2022-08-26T09:11:25.372Z,64.36
2022-08-26T09:12:29.896Z,65.21
2022-08-26T09:13:27.165Z,64.75
2022-08-26T09:14:25.381Z,65.05
2022-08-26T09:15:26.400Z,64.95
2022-08-26T09:16:25.474Z,64.88
2022-08-26T09:17:25.387Z,65.20
2022-08-26T09:18:25.389Z,65.41
2022-08-26T09:19:25.396Z,66.19
2022-08-26T09:20:25.398Z,66.00
2022-08-26T09:21:25.482Z,66.69
2022-08-26T09:22:25.409Z,67.08
2022-08-26T09:23:25.409Z,65.86
2022-08-26T09:24:28.512Z,65.20
2022-08-26T09:25:25.412Z,66.59
2022-08-26T09:26:28.675Z,64.91
2022-08-26T09:27:25.416Z,64.91
2022-08-26T09:28:25.426Z,65.60
2022-08-26T09:29:25.425Z,65.30
2022-08-26T09:30:25.491Z,65.53
2022-08-26T09:31:25.480Z,66.09
2022-08-26T09:32:25.431Z,66.62
2022-08-26T09:33:25.434Z,67.02
2022-08-26T09:34:25.433Z,66.82
2022-08-26T09:35:25.443Z,66.49
2022-08-26T09:36:25.442Z,66.19
2022-08-26T09:37:25.448Z,65.27
2022-08-26T09:38:26.781Z,66.09
2022-08-26T09:39:25.450Z,65.30
2022-08-26T09:40:27.046Z,64.84
2022-08-26T09:41:25.455Z,64.98
2022-08-26T09:42:25.466Z,65.86
2022-08-26T09:43:25.465Z,65.41
2022-08-26T09:44:25.461Z,65.20
2022-08-26T09:45:25.469Z,65.57
2022-08-26T09:46:25.588Z,65.47
2022-08-26T09:47:25.472Z,65.27
2022-08-26T09:48:25.473Z,65.37
2022-08-26T09:49:25.593Z,64.84
2022-08-26T09:50:28.802Z,65.31
2022-08-26T09:51:25.483Z,64.32
2022-08-26T09:52:25.484Z,64.32
2022-08-26T09:53:28.634Z,63.43
2022-08-26T09:54:25.493Z,63.53
2022-08-26T09:55:25.493Z,63.24
2022-08-26T09:56:25.497Z,62.55
2022-08-26T09:57:25.531Z,63.01
2022-08-26T09:58:25.500Z,62.91
2022-08-26T09:59:25.509Z,62.74
2022-08-26T10:00:25.512Z,64.39
2022-08-26T10:01:25.562Z,64.19
2022-08-26T10:02:25.517Z,63.40
2022-08-26T10:03:25.517Z,63.60
2022-08-26T10:04:25.584Z,62.71
2022-08-26T10:05:25.526Z,62.45
2022-08-26T10:06:25.537Z,63.04
2022-08-26T10:07:25.529Z,64.09
2022-08-26T10:08:25.534Z,63.60
2022-08-26T10:09:25.539Z,63.80
2022-08-26T10:10:25.539Z,62.68
2022-08-26T10:11:25.544Z,62.49
2022-08-26T10:12:25.548Z,62.09
2022-08-26T10:13:25.548Z,60.64
2022-08-26T10:14:25.634Z,61.33
2022-08-26T10:15:25.558Z,61.56
2022-08-26T10:16:25.677Z,61.69
2022-08-26T10:17:25.563Z,62.97
2022-08-26T10:18:25.938Z,62.45
2022-08-26T10:19:25.568Z,62.45
2022-08-26T10:20:25.619Z,62.62
2022-08-26T10:21:25.574Z,61.82
2022-08-26T10:22:25.578Z,60.77
2022-08-26T10:23:25.606Z,61.24
2022-08-26T10:24:25.587Z,61.33
2022-08-26T10:25:25.588Z,61.27
2022-08-26T10:26:25.594Z,61.47
2022-08-26T10:27:25.592Z,60.95
2022-08-26T10:28:25.593Z,60.06
2022-08-26T10:29:25.600Z,61.05
2022-08-26T10:30:25.607Z,58.48
2022-08-26T10:31:27.924Z,59.15
2022-08-26T10:32:25.651Z,58.65
2022-08-26T10:33:25.614Z,57.18
2022-08-26T10:34:25.617Z,57.77
2022-08-26T10:35:25.620Z,58.95
2022-08-26T10:36:25.623Z,56.98
2022-08-26T10:37:25.628Z,58.26
2022-08-26T10:38:25.628Z,57.40
2022-08-26T10:39:25.736Z,59.27
2022-08-26T10:40:25.695Z,58.69
2022-08-26T10:41:25.643Z,58.19
2022-08-26T10:42:25.641Z,59.27
2022-08-26T10:43:25.786Z,58.00
2022-08-26T10:44:25.647Z,58.09
2022-08-26T10:45:25.657Z,58.12
2022-08-26T10:46:27.384Z,57.90
2022-08-26T10:47:25.664Z,58.19
2022-08-26T10:48:25.662Z,58.09
2022-08-26T10:49:25.666Z,58.09
2022-08-26T10:50:25.672Z,58.78
2022-08-26T10:51:25.679Z,58.16
2022-08-26T10:52:29.386Z,58.36
2022-08-26T10:53:26.374Z,57.84
2022-08-26T10:54:25.686Z,57.18
2022-08-26T10:55:25.692Z,57.97
2022-08-26T10:56:25.693Z,58.16
2022-08-26T10:57:25.699Z,57.97
2022-08-26T10:58:26.618Z,58.14
2022-08-26T10:59:25.713Z,57.70
2022-08-26T11:00:27.501Z,57.90
2022-08-26T11:01:25.768Z,58.98
2022-08-26T11:02:25.716Z,58.65
2022-08-26T11:03:25.720Z,57.15
2022-08-26T11:04:25.767Z,58.23
2022-08-26T11:05:25.730Z,56.10
2022-08-26T11:06:25.731Z,57.11
2022-08-26T11:07:25.737Z,57.31
2022-08-26T11:08:25.741Z,57.14
2022-08-26T11:09:25.810Z,57.53
2022-08-26T11:10:25.758Z,58.91
2022-08-26T11:11:25.752Z,57.53
2022-08-26T11:12:25.756Z,57.63
2022-08-26T11:13:25.760Z,57.73
2022-08-26T11:14:29.077Z,58.12
2022-08-26T11:15:25.773Z,58.42
2022-08-26T11:16:25.823Z,57.70
2022-08-26T11:17:25.775Z,57.79
2022-08-26T11:18:25.777Z,57.50
2022-08-26T11:19:26.356Z,58.29
2022-08-26T11:20:25.787Z,57.60
2022-08-26T11:21:25.789Z,57.40
2022-08-26T11:22:25.792Z,58.39
2022-08-26T11:23:25.795Z,57.70
2022-08-26T11:24:25.802Z,58.78
2022-08-26T11:25:29.905Z,59.47
2022-08-26T11:26:35.433Z,56.79
2022-08-26T11:27:25.813Z,56.49
2022-08-26T11:28:25.813Z,55.90
2022-08-26T11:29:25.816Z,56.29
2022-08-26T11:30:25.821Z,55.11
2022-08-26T11:31:25.913Z,55.21
2022-08-26T11:32:25.903Z,57.70
2022-08-26T11:33:25.840Z,57.77
2022-08-26T11:34:25.836Z,56.29
2022-08-26T11:35:25.844Z,56.88
2022-08-26T11:36:25.842Z,57.67
2022-08-26T11:37:25.848Z,57.37
2022-08-26T11:38:25.850Z,56.20
2022-08-26T11:39:25.853Z,56.22
2022-08-26T11:40:25.868Z,56.48
2022-08-26T11:41:25.862Z,57.39
2022-08-26T11:42:27.766Z,58.11
2022-08-26T11:43:25.871Z,58.23
2022-08-26T11:44:25.875Z,59.05
2022-08-26T11:45:25.894Z,58.98
2022-08-26T11:46:25.880Z,60.59
2022-08-26T11:47:25.885Z,60.69
2022-08-26T11:48:25.888Z,60.03
2022-08-26T11:49:25.890Z,59.83
2022-08-26T11:50:25.892Z,60.06
2022-08-26T11:51:25.912Z,60.08
2022-08-26T11:52:25.899Z,59.42
2022-08-26T11:53:26.141Z,59.15
2022-08-26T11:54:34.984Z,59.84
2022-08-26T11:55:25.911Z,60.37
2022-08-26T11:56:25.919Z,61.79
2022-08-26T11:57:25.914Z,61.10
2022-08-26T11:58:25.914Z,62.31
2022-08-26T11:59:25.941Z,62.64
2022-08-26T12:00:25.921Z,63.31
2022-08-26T12:01:25.928Z,63.04
2022-08-26T12:02:25.925Z,63.04
2022-08-26T12:03:26.012Z,64.16
2022-08-26T12:04:25.967Z,62.60
2022-08-26T12:05:26.804Z,63.40
2022-08-26T12:07:26.083Z,63.89
2022-08-26T12:08:26.009Z,63.92
2022-08-26T12:09:25.948Z,65.31
2022-08-26T12:10:25.951Z,65.12
2022-08-26T12:11:25.944Z,65.02
2022-08-26T12:12:25.947Z,65.55
2022-08-26T12:13:26.368Z,65.75
2022-08-26T12:14:25.954Z,66.77
2022-08-26T12:15:25.950Z,66.97
2022-08-26T12:16:25.969Z,67.37
2022-08-26T12:17:25.950Z,68.90
2022-08-26T12:18:29.223Z,69.20
2022-08-26T12:19:25.957Z,68.99
2022-08-26T12:20:25.961Z,69.73
2022-08-26T12:21:25.961Z,69.73
2022-08-26T12:22:25.962Z,69.23
2022-08-26T12:23:25.964Z,69.02
2022-08-26T12:24:26.234Z,69.92
2022-08-26T12:25:25.963Z,70.42
2022-08-26T12:26:25.965Z,70.12
2022-08-26T12:27:25.966Z,70.26
2022-08-26T12:28:25.968Z,70.36
2022-08-26T12:29:26.654Z,70.56
2022-08-26T12:30:26.043Z,70.16
2022-08-26T12:31:25.986Z,70.95
2022-08-26T12:32:25.969Z,72.05
2022-08-26T12:33:25.971Z,73.74
2022-08-26T12:34:25.970Z,75.37
2022-08-26T12:35:25.974Z,76.01
2022-08-26T12:36:25.973Z,77.11
2022-08-26T12:37:25.970Z,79.00
2022-08-26T12:38:25.973Z,79.24
2022-08-26T12:39:25.971Z,80.83
2022-08-26T12:40:26.003Z,82.57
2022-08-26T12:41:25.971Z,82.77
2022-08-26T12:42:25.973Z,83.61
2022-08-26T12:43:25.973Z,84.91
2022-08-26T12:44:25.995Z,85.51
2022-08-26T12:45:26.008Z,85.51
2022-08-26T12:46:25.997Z,86.21
2022-08-26T12:47:41.841Z,86.61
2022-08-26T12:48:25.980Z,87.61
2022-08-26T12:49:25.973Z,88.45
2022-08-26T12:50:25.993Z,88.75
2022-08-26T12:51:25.975Z,89.35
2022-08-26T12:52:25.983Z,89.95
2022-08-26T12:53:25.976Z,89.95
2022-08-26T12:54:25.973Z,90.25